ADDS METAR Data INFO
IDs: Format: Raw Decoded Include TAF

Data at: 1336 UTC 23 Jun 2018

KRVS 231253Z 00000KT 10SM CLR 21/19 A2979 RMK AO2 SLP090 T02110194
KRVS 231153Z VRB03KT 10SM CLR 21/19 A2976 RMK AO2 SLP080 60024 70032 T02110194 10222 20200 51021
KRVS 231053Z AUTO 00000KT 10SM CLR 20/19 A2975 RMK AO2 SLP077 T02000189
KRVS 230953Z AUTO 23003KT 10SM CLR 21/18 A2971 RMK AO2 SLP062 T02110183
KRVS 230853Z AUTO 16005KT 10SM CLR 21/19 A2970 RMK AO2 RAB06E20 SLP058 P0000 60024 T02110189 58052
KRVS 230753Z AUTO 16008KT 10SM CLR 21/19 A2971 RMK AO2 LTG DSNT SE-SW RAE44 TSE0659 PRESFR SLP064 P0002 T02110189
KRVS 230705Z AUTO 15009KT 9SM -RA FEW080 BKN100 OVC120 21/19 A2976 RMK AO2 LTG DSNT E-S TSE0659 PRESFR P0001 T02110194
KRVS 230653Z AUTO 14004KT 7SM TSRA FEW080 BKN100 OVC120 21/19 A2984 RMK AO2 LTG DSNT ALQDS TSE0558B44 PRESFR SLP109 P0022 T02060194
KRVS 230650Z AUTO VRB04KT 7SM TSRA BKN090 OVC120 21/19 A2986 RMK AO2 LTG DSNT ALQDS TSE0558B44 PRESFR P0021
KRVS 230631Z AUTO 34006KT 6SM RA BR BKN085 OVC110 21/19 A2990 RMK AO2 LTG DSNT SE-SW TSE0558 P0016 T02060189
KRVS 230616Z AUTO 34007G16KT 260V020 5SM VCTS +RA BR BKN090 OVC110 21/19 A2991 RMK AO2 LTG DSNT ALQDS TSE0558 P0010 T02060194
KRVS 230603Z AUTO 34010G19KT 5SM RA BR BKN100 BKN110 21/19 A2992 RMK AO2 LTG DSNT S-NW TSE0558 P0004 T02110194
KRVS 230553Z AUTO 34009G19KT 6SM TSRA BR BKN095 BKN120 21/19 A2990 RMK AO2 LTG DSNT ALQDS RAB05 TSB33 SLP130 P0008 60008 T02110194 10311 20211 403170172 53045
KRVS 230539Z AUTO 34013G23KT 6SM TSRA BR SCT100 BKN120 22/19 A2990 RMK AO2 LTG DSNT ALQDS RAB05 TSB33 P0005 T02170194
KRVS 230508Z AUTO 33008KT 290V360 10SM VCTS -RA SCT050 BKN095 26/18 A2989 RMK AO2 LTG DSNT W-N RAB05 P0001 T02610183
KRVS 230453Z AUTO 34009G17KT 10SM SCT049 SCT120 27/18 A2987 RMK AO2 LTG DSNT W-N PRESRR SLP118 T02670183
KRVS 230353Z AUTO 00000KT 10SM FEW044 24/19 A2979 RMK AO2 SLP089 T02440189
KRVS 230253Z 00000KT 10SM CLR 24/19 A2977 RMK AO2 SLP083 LAST T02440189 53014
KRVS 230153Z 17004KT 10SM CLR 28/18 A2973 RMK AO2 SLP071 T02830183
KRVS 230053Z 17007KT 10SM CLR 29/18 A2972 RMK AO2 SLP066 T02940178
KRVS 222353Z 17006KT 10SM CLR 31/17 A2973 RMK AO2 SLP069 T03110172 10317 20278 56019
KRVS 222253Z VRB04KT 10SM CLR 32/17 A2975 RMK AO2 SLP076 T03170167
KRVS 222153Z VRB06KT 10SM CLR 32/17 A2975 RMK AO2 SLP075 T03170167
KRVS 222053Z VRB04KT 10SM CLR 31/18 A2978 RMK AO2 SLP088 T03060178 58027
KRVS 221953Z 00000KT 10SM CLR 29/17 A2983 RMK AO2 SLP102 T02940172
KRVS 221853Z 00000KT 10SM CLR 28/17 A2985 RMK AO2 SLP111 T02780167
KRVS 221753Z VRB05KT 10SM CLR 28/17 A2986 RMK AO2 SLP115 T02830167 10294 20194 58009
KRVS 221653Z VRB06KT 10SM CLR 28/17 A2987 RMK AO2 SLP118 T02780167
KRVS 221553Z VRB05KT 10SM CLR 26/17 A2989 RMK AO2 SLP123 T02610167
KRVS 221453Z VRB05KT 10SM CLR 26/17 A2989 RMK AO2 SLP126 T02560167 53007
KRVS 221353Z 10SM CLR 24/16 A2989 RMK AO2 SLP124 T02390161
KRVS 221253Z 34004KT 10SM CLR 23/16 A2987 RMK AO2 SLP117 T02280161
KRVS 221153Z 00000KT 10SM CLR 19/16 A2987 RMK AO2 SLP119 T01890161 10244 20172 53014
KRVS 221053Z AUTO 00000KT 10SM CLR 18/15 A2986 RMK AO2 SLP114 T01780150
KRVS 220953Z AUTO 00000KT 10SM CLR 19/16 A2984 RMK AO2 SLP106 T01890156
KRVS 220853Z AUTO 00000KT 10SM CLR 19/16 A2983 RMK AO2 SLP104 T01940156 58006
KRVS 220753Z AUTO 00000KT 10SM SCT090 22/15 A2985 RMK AO2 SLP109 T02220150
KRVS 220653Z AUTO 00000KT 10SM FEW095 22/15 A2985 RMK AO2 SLP111 T02170150
KRVS 220553Z AUTO 00000KT 10SM CLR 24/14 A2985 RMK AO2 SLP110 T02390144 10311 20233 403220217 51013
KRVS 220453Z AUTO 36004KT 10SM CLR 26/14 A2985 RMK AO2 SLP109 T02610144
KRVS 220353Z AUTO 35007KT 10SM CLR 27/14 A2983 RMK AO2 SLP104 T02720144
KRVS 220253Z 00000KT 10SM FEW090 24/16 A2981 RMK AO2 SLP098 LAST T02440161 53006
KRVS 220153Z 00000KT 10SM CLR 26/16 A2979 RMK AO2 SLP092 T02560161